sensor_id;sensor_type;location;lat;lon;timestamp;P1;durP1;ratioP1;P2;durP2;ratioP2
63782;SDS011;49925;52.522;5.732;2024-02-23T00:00:09;3.03;;;1.35;;
63782;SDS011;49925;52.522;5.732;2024-02-23T00:02:38;4.43;;;1.63;;
63782;SDS011;49925;52.522;5.732;2024-02-23T00:05:05;6.38;;;1.10;;
63782;SDS011;49925;52.522;5.732;2024-02-23T00:07:32;3.20;;;1.17;;
63782;SDS011;49925;52.522;5.732;2024-02-23T00:10:00;1.75;;;0.80;;
63782;SDS011;49925;52.522;5.732;2024-02-23T00:12:27;3.38;;;1.27;;
63782;SDS011;49925;52.522;5.732;2024-02-23T00:14:54;4.88;;;1.13;;
63782;SDS011;49925;52.522;5.732;2024-02-23T00:17:21;9.65;;;1.90;;
63782;SDS011;49925;52.522;5.732;2024-02-23T00:19:49;8.82;;;1.50;;
63782;SDS011;49925;52.522;5.732;2024-02-23T00:22:19;6.50;;;1.50;;
63782;SDS011;49925;52.522;5.732;2024-02-23T00:24:50;9.55;;;1.80;;
63782;SDS011;49925;52.522;5.732;2024-02-23T00:27:18;5.78;;;1.33;;
63782;SDS011;49925;52.522;5.732;2024-02-23T00:29:45;7.25;;;1.73;;
63782;SDS011;49925;52.522;5.732;2024-02-23T00:32:12;13.18;;;1.90;;
63782;SDS011;49925;52.522;5.732;2024-02-23T00:34:40;14.02;;;2.50;;
63782;SDS011;49925;52.522;5.732;2024-02-23T00:37:07;12.65;;;2.53;;
63782;SDS011;49925;52.522;5.732;2024-02-23T00:39:35;11.02;;;1.90;;
63782;SDS011;49925;52.522;5.732;2024-02-23T00:42:04;16.63;;;2.80;;
63782;SDS011;49925;52.522;5.732;2024-02-23T00:44:31;17.67;;;2.50;;
63782;SDS011;49925;52.522;5.732;2024-02-23T00:46:58;24.17;;;3.00;;
63782;SDS011;49925;52.522;5.732;2024-02-23T00:49:27;18.13;;;2.72;;
63782;SDS011;49925;52.522;5.732;2024-02-23T00:51:55;18.52;;;2.50;;
63782;SDS011;49925;52.522;5.732;2024-02-23T00:54:22;15.40;;;2.35;;
63782;SDS011;49925;52.522;5.732;2024-02-23T00:56:49;26.42;;;3.80;;
63782;SDS011;49925;52.522;5.732;2024-02-23T00:59:30;18.50;;;2.85;;
63782;SDS011;49925;52.522;5.732;2024-02-23T01:01:59;16.85;;;2.75;;
63782;SDS011;49925;52.522;5.732;2024-02-23T01:04:37;21.02;;;3.00;;
63782;SDS011;49925;52.522;5.732;2024-02-23T01:07:05;28.13;;;3.22;;
63782;SDS011;49925;52.522;5.732;2024-02-23T01:09:36;19.25;;;3.42;;
63782;SDS011;49925;52.522;5.732;2024-02-23T01:12:03;26.98;;;3.65;;
63782;SDS011;49925;52.522;5.732;2024-02-23T01:14:31;15.68;;;3.00;;
63782;SDS011;49925;52.522;5.732;2024-02-23T01:16:58;27.27;;;3.58;;
63782;SDS011;49925;52.522;5.732;2024-02-23T01:19:25;18.75;;;3.20;;
63782;SDS011;49925;52.522;5.732;2024-02-23T01:21:53;18.08;;;3.35;;
63782;SDS011;49925;52.522;5.732;2024-02-23T01:24:26;15.40;;;2.60;;
63782;SDS011;49925;52.522;5.732;2024-02-23T01:26:55;18.05;;;2.55;;
63782;SDS011;49925;52.522;5.732;2024-02-23T01:29:25;17.73;;;2.65;;
63782;SDS011;49925;52.522;5.732;2024-02-23T01:31:53;26.52;;;3.30;;
63782;SDS011;49925;52.522;5.732;2024-02-23T01:34:24;14.77;;;2.90;;
63782;SDS011;49925;52.522;5.732;2024-02-23T01:36:52;26.02;;;3.03;;
63782;SDS011;49925;52.522;5.732;2024-02-23T01:39:19;23.25;;;3.28;;
63782;SDS011;49925;52.522;5.732;2024-02-23T01:41:46;27.83;;;3.35;;
63782;SDS011;49925;52.522;5.732;2024-02-23T01:44:14;20.70;;;3.15;;
63782;SDS011;49925;52.522;5.732;2024-02-23T01:46:44;11.98;;;2.38;;
63782;SDS011;49925;52.522;5.732;2024-02-23T01:49:11;18.33;;;2.70;;
63782;SDS011;49925;52.522;5.732;2024-02-23T01:51:39;11.10;;;3.05;;
63782;SDS011;49925;52.522;5.732;2024-02-23T01:54:06;16.13;;;2.70;;
63782;SDS011;49925;52.522;5.732;2024-02-23T01:56:34;17.88;;;4.00;;
63782;SDS011;49925;52.522;5.732;2024-02-23T01:59:03;25.77;;;2.90;;
63782;SDS011;49925;52.522;5.732;2024-02-23T02:04:16;18.60;;;2.20;;
63782;SDS011;49925;52.522;5.732;2024-02-23T02:06:45;15.30;;;2.30;;
63782;SDS011;49925;52.522;5.732;2024-02-23T02:09:13;11.82;;;2.22;;
63782;SDS011;49925;52.522;5.732;2024-02-23T02:11:47;20.88;;;2.60;;
63782;SDS011;49925;52.522;5.732;2024-02-23T02:14:15;24.50;;;2.70;;
63782;SDS011;49925;52.522;5.732;2024-02-23T02:16:43;15.70;;;2.55;;
63782;SDS011;49925;52.522;5.732;2024-02-23T02:19:11;14.05;;;2.30;;
63782;SDS011;49925;52.522;5.732;2024-02-23T02:21:39;10.10;;;3.22;;
63782;SDS011;49925;52.522;5.732;2024-02-23T02:24:07;20.73;;;2.40;;
63782;SDS011;49925;52.522;5.732;2024-02-23T02:26:37;13.95;;;2.50;;
63782;SDS011;49925;52.522;5.732;2024-02-23T02:29:04;12.98;;;2.22;;
63782;SDS011;49925;52.522;5.732;2024-02-23T02:31:32;14.80;;;2.60;;
63782;SDS011;49925;52.522;5.732;2024-02-23T02:34:04;20.23;;;3.00;;
63782;SDS011;49925;52.522;5.732;2024-02-23T02:36:31;12.52;;;2.20;;
63782;SDS011;49925;52.522;5.732;2024-02-23T02:38:58;18.85;;;2.78;;
63782;SDS011;49925;52.522;5.732;2024-02-23T02:41:27;15.10;;;2.55;;
63782;SDS011;49925;52.522;5.732;2024-02-23T02:43:58;15.38;;;2.67;;
63782;SDS011;49925;52.522;5.732;2024-02-23T02:46:26;17.83;;;2.63;;
63782;SDS011;49925;52.522;5.732;2024-02-23T02:48:53;15.77;;;2.55;;
63782;SDS011;49925;52.522;5.732;2024-02-23T02:51:20;11.65;;;2.40;;
63782;SDS011;49925;52.522;5.732;2024-02-23T02:53:47;20.35;;;2.60;;
63782;SDS011;49925;52.522;5.732;2024-02-23T02:56:15;16.30;;;2.78;;
63782;SDS011;49925;52.522;5.732;2024-02-23T02:58:42;10.00;;;2.13;;
63782;SDS011;49925;52.522;5.732;2024-02-23T03:01:09;17.38;;;2.35;;
63782;SDS011;49925;52.522;5.732;2024-02-23T03:03:37;15.02;;;2.45;;
63782;SDS011;49925;52.522;5.732;2024-02-23T03:06:04;12.18;;;2.13;;
63782;SDS011;49925;52.522;5.732;2024-02-23T03:08:32;11.95;;;2.42;;
63782;SDS011;49925;52.522;5.732;2024-02-23T03:11:00;15.50;;;2.50;;
63782;SDS011;49925;52.522;5.732;2024-02-23T03:13:28;12.00;;;2.35;;
63782;SDS011;49925;52.522;5.732;2024-02-23T03:15:55;6.95;;;1.80;;
63782;SDS011;49925;52.522;5.732;2024-02-23T03:18:22;17.75;;;2.85;;
63782;SDS011;49925;52.522;5.732;2024-02-23T03:20:50;9.70;;;2.13;;
63782;SDS011;49925;52.522;5.732;2024-02-23T03:23:17;10.73;;;2.22;;
63782;SDS011;49925;52.522;5.732;2024-02-23T03:25:46;15.68;;;2.47;;
63782;SDS011;49925;52.522;5.732;2024-02-23T03:28:13;19.75;;;2.10;;
63782;SDS011;49925;52.522;5.732;2024-02-23T03:30:40;22.67;;;2.25;;
63782;SDS011;49925;52.522;5.732;2024-02-23T03:33:08;14.57;;;2.45;;
63782;SDS011;49925;52.522;5.732;2024-02-23T03:35:35;13.35;;;2.35;;
63782;SDS011;49925;52.522;5.732;2024-02-23T03:38:03;13.85;;;2.75;;
63782;SDS011;49925;52.522;5.732;2024-02-23T03:40:30;8.45;;;2.08;;
63782;SDS011;49925;52.522;5.732;2024-02-23T03:42:57;16.58;;;2.30;;
63782;SDS011;49925;52.522;5.732;2024-02-23T03:45:25;10.10;;;2.33;;
63782;SDS011;49925;52.522;5.732;2024-02-23T03:47:52;18.98;;;2.65;;
63782;SDS011;49925;52.522;5.732;2024-02-23T03:50:19;20.92;;;3.13;;
63782;SDS011;49925;52.522;5.732;2024-02-23T03:52:47;13.52;;;2.35;;
63782;SDS011;49925;52.522;5.732;2024-02-23T03:55:15;12.98;;;2.72;;
63782;SDS011;49925;52.522;5.732;2024-02-23T03:57:42;16.30;;;2.80;;
63782;SDS011;49925;52.522;5.732;2024-02-23T04:00:12;16.30;;;2.90;;
63782;SDS011;49925;52.522;5.732;2024-02-23T04:02:40;9.05;;;2.38;;
63782;SDS011;49925;52.522;5.732;2024-02-23T04:05:07;16.48;;;2.83;;
63782;SDS011;49925;52.522;5.732;2024-02-23T04:07:35;23.52;;;2.80;;
63782;SDS011;49925;52.522;5.732;2024-02-23T04:10:02;16.08;;;3.08;;
63782;SDS011;49925;52.522;5.732;2024-02-23T04:12:31;16.52;;;3.50;;
63782;SDS011;49925;52.522;5.732;2024-02-23T04:14:58;18.42;;;2.85;;
63782;SDS011;49925;52.522;5.732;2024-02-23T04:17:26;13.82;;;2.97;;
63782;SDS011;49925;52.522;5.732;2024-02-23T04:19:53;14.30;;;3.05;;
63782;SDS011;49925;52.522;5.732;2024-02-23T04:22:21;14.00;;;3.42;;
63782;SDS011;49925;52.522;5.732;2024-02-23T04:24:48;9.82;;;3.00;;
63782;SDS011;49925;52.522;5.732;2024-02-23T04:27:16;20.95;;;4.13;;
63782;SDS011;49925;52.522;5.732;2024-02-23T04:29:43;19.95;;;3.60;;
63782;SDS011;49925;52.522;5.732;2024-02-23T04:32:10;13.88;;;3.80;;
63782;SDS011;49925;52.522;5.732;2024-02-23T04:34:38;19.60;;;3.92;;
63782;SDS011;49925;52.522;5.732;2024-02-23T04:37:06;24.33;;;4.88;;
63782;SDS011;49925;52.522;5.732;2024-02-23T04:39:34;12.18;;;4.18;;
63782;SDS011;49925;52.522;5.732;2024-02-23T04:42:01;23.52;;;4.22;;
63782;SDS011;49925;52.522;5.732;2024-02-23T04:44:29;19.25;;;4.90;;
63782;SDS011;49925;52.522;5.732;2024-02-23T04:46:56;15.35;;;4.70;;
63782;SDS011;49925;52.522;5.732;2024-02-23T04:49:23;16.52;;;4.40;;
63782;SDS011;49925;52.522;5.732;2024-02-23T04:51:50;13.50;;;4.65;;
63782;SDS011;49925;52.522;5.732;2024-02-23T04:54:18;13.73;;;4.30;;
63782;SDS011;49925;52.522;5.732;2024-02-23T06:22:51;19.90;;;4.43;;
63782;SDS011;49925;52.522;5.732;2024-02-23T06:25:20;15.68;;;4.10;;
63782;SDS011;49925;52.522;5.732;2024-02-23T06:27:47;24.48;;;6.00;;
63782;SDS011;49925;52.522;5.732;2024-02-23T06:30:15;16.23;;;4.65;;
63782;SDS011;49925;52.522;5.732;2024-02-23T06:32:43;13.45;;;4.65;;
63782;SDS011;49925;52.522;5.732;2024-02-23T06:35:12;24.92;;;4.60;;
63782;SDS011;49925;52.522;5.732;2024-02-23T06:37:40;14.25;;;4.80;;
63782;SDS011;49925;52.522;5.732;2024-02-23T06:40:07;14.27;;;4.95;;
63782;SDS011;49925;52.522;5.732;2024-02-23T06:42:35;13.48;;;4.30;;
63782;SDS011;49925;52.522;5.732;2024-02-23T06:45:02;15.55;;;4.47;;
63782;SDS011;49925;52.522;5.732;2024-02-23T06:47:30;16.73;;;4.57;;
63782;SDS011;49925;52.522;5.732;2024-02-23T06:49:57;14.40;;;5.20;;
63782;SDS011;49925;52.522;5.732;2024-02-23T06:52:24;15.80;;;5.00;;
63782;SDS011;49925;52.522;5.732;2024-02-23T06:54:52;10.82;;;4.35;;
63782;SDS011;49925;52.522;5.732;2024-02-23T06:57:19;22.30;;;5.30;;
63782;SDS011;49925;52.522;5.732;2024-02-23T06:59:48;23.45;;;4.93;;
63782;SDS011;49925;52.522;5.732;2024-02-23T07:02:17;16.45;;;5.18;;
63782;SDS011;49925;52.522;5.732;2024-02-23T07:04:45;14.15;;;4.40;;
63782;SDS011;49925;52.522;5.732;2024-02-23T07:07:12;12.18;;;3.78;;
63782;SDS011;49925;52.522;5.732;2024-02-23T07:09:39;11.93;;;3.45;;
63782;SDS011;49925;52.522;5.732;2024-02-23T07:12:06;15.52;;;3.30;;
63782;SDS011;49925;52.522;5.732;2024-02-23T07:14:34;14.10;;;3.42;;
63782;SDS011;49925;52.522;5.732;2024-02-23T07:17:01;21.35;;;3.78;;
63782;SDS011;49925;52.522;5.732;2024-02-23T07:19:29;12.05;;;3.10;;
63782;SDS011;49925;52.522;5.732;2024-02-23T07:21:57;9.32;;;3.15;;
63782;SDS011;49925;52.522;5.732;2024-02-23T07:24:24;18.15;;;3.58;;
63782;SDS011;49925;52.522;5.732;2024-02-23T07:26:51;10.10;;;2.60;;
63782;SDS011;49925;52.522;5.732;2024-02-23T07:29:19;9.48;;;2.92;;
63782;SDS011;49925;52.522;5.732;2024-02-23T07:31:46;10.57;;;2.75;;
63782;SDS011;49925;52.522;5.732;2024-02-23T07:34:15;12.60;;;2.90;;
63782;SDS011;49925;52.522;5.732;2024-02-23T07:36:42;9.25;;;2.90;;
63782;SDS011;49925;52.522;5.732;2024-02-23T07:39:10;13.55;;;3.13;;
63782;SDS011;49925;52.522;5.732;2024-02-23T07:41:38;8.88;;;2.85;;
63782;SDS011;49925;52.522;5.732;2024-02-23T07:44:05;11.07;;;2.67;;
63782;SDS011;49925;52.522;5.732;2024-02-23T07:46:32;11.25;;;3.20;;
63782;SDS011;49925;52.522;5.732;2024-02-23T07:49:00;13.10;;;2.50;;
63782;SDS011;49925;52.522;5.732;2024-02-23T07:51:27;11.05;;;2.55;;
63782;SDS011;49925;52.522;5.732;2024-02-23T07:53:55;6.53;;;2.45;;
63782;SDS011;49925;52.522;5.732;2024-02-23T07:56:22;6.07;;;2.63;;
63782;SDS011;49925;52.522;5.732;2024-02-23T07:58:49;12.43;;;3.25;;
63782;SDS011;49925;52.522;5.732;2024-02-23T08:01:18;13.10;;;2.70;;
63782;SDS011;49925;52.522;5.732;2024-02-23T08:03:45;15.00;;;3.35;;
63782;SDS011;49925;52.522;5.732;2024-02-23T08:06:12;8.98;;;2.50;;
63782;SDS011;49925;52.522;5.732;2024-02-23T08:08:39;10.30;;;2.70;;
63782;SDS011;49925;52.522;5.732;2024-02-23T08:11:07;12.32;;;2.72;;
63782;SDS011;49925;52.522;5.732;2024-02-23T08:13:34;14.40;;;3.50;;
63782;SDS011;49925;52.522;5.732;2024-02-23T08:16:02;12.60;;;3.33;;
63782;SDS011;49925;52.522;5.732;2024-02-23T08:18:30;11.35;;;2.80;;
63782;SDS011;49925;52.522;5.732;2024-02-23T08:20:58;12.70;;;2.95;;
63782;SDS011;49925;52.522;5.732;2024-02-23T08:23:27;13.80;;;3.30;;
63782;SDS011;49925;52.522;5.732;2024-02-23T08:25:54;12.43;;;3.03;;
63782;SDS011;49925;52.522;5.732;2024-02-23T08:28:23;13.75;;;2.90;;
63782;SDS011;49925;52.522;5.732;2024-02-23T08:30:50;11.82;;;3.03;;
63782;SDS011;49925;52.522;5.732;2024-02-23T08:33:18;10.88;;;2.97;;
63782;SDS011;49925;52.522;5.732;2024-02-23T08:35:46;9.95;;;3.03;;
63782;SDS011;49925;52.522;5.732;2024-02-23T08:38:17;8.90;;;2.75;;
63782;SDS011;49925;52.522;5.732;2024-02-23T08:40:46;13.80;;;2.92;;
63782;SDS011;49925;52.522;5.732;2024-02-23T08:43:13;11.40;;;2.78;;
63782;SDS011;49925;52.522;5.732;2024-02-23T08:45:42;11.30;;;2.58;;
63782;SDS011;49925;52.522;5.732;2024-02-23T08:48:09;14.55;;;3.00;;
63782;SDS011;49925;52.522;5.732;2024-02-23T08:53:09;5.90;;;1.98;;
63782;SDS011;49925;52.522;5.732;2024-02-23T08:55:37;11.70;;;2.60;;
63782;SDS011;49925;52.522;5.732;2024-02-23T08:58:04;15.57;;;2.70;;
63782;SDS011;49925;52.522;5.732;2024-02-23T09:00:32;8.73;;;2.17;;
63782;SDS011;49925;52.522;5.732;2024-02-23T09:03:00;12.20;;;2.85;;
63782;SDS011;49925;52.522;5.732;2024-02-23T09:05:27;6.60;;;2.50;;
63782;SDS011;49925;52.522;5.732;2024-02-23T09:07:54;20.23;;;2.58;;
63782;SDS011;49925;52.522;5.732;2024-02-23T09:10:21;10.85;;;2.83;;
63782;SDS011;49925;52.522;5.732;2024-02-23T09:12:49;13.52;;;2.42;;
63782;SDS011;49925;52.522;5.732;2024-02-23T09:15:17;18.92;;;3.22;;
63782;SDS011;49925;52.522;5.732;2024-02-23T09:17:46;11.13;;;2.38;;
63782;SDS011;49925;52.522;5.732;2024-02-23T09:20:13;9.88;;;2.42;;
63782;SDS011;49925;52.522;5.732;2024-02-23T09:22:41;8.82;;;2.38;;
63782;SDS011;49925;52.522;5.732;2024-02-23T09:25:08;13.30;;;3.28;;
63782;SDS011;49925;52.522;5.732;2024-02-23T09:27:36;15.63;;;2.50;;
63782;SDS011;49925;52.522;5.732;2024-02-23T09:30:11;12.05;;;2.67;;
63782;SDS011;49925;52.522;5.732;2024-02-23T09:32:39;13.90;;;3.28;;
63782;SDS011;49925;52.522;5.732;2024-02-23T09:35:06;9.93;;;2.10;;
63782;SDS011;49925;52.522;5.732;2024-02-23T09:37:34;10.85;;;2.42;;
63782;SDS011;49925;52.522;5.732;2024-02-23T09:40:02;8.75;;;2.35;;
63782;SDS011;49925;52.522;5.732;2024-02-23T09:42:29;13.02;;;2.30;;
63782;SDS011;49925;52.522;5.732;2024-02-23T09:44:59;15.68;;;3.08;;
63782;SDS011;49925;52.522;5.732;2024-02-23T09:47:27;12.60;;;2.30;;
63782;SDS011;49925;52.522;5.732;2024-02-23T09:49:55;16.95;;;2.38;;
63782;SDS011;49925;52.522;5.732;2024-02-23T09:52:22;17.60;;;3.10;;
63782;SDS011;49925;52.522;5.732;2024-02-23T09:54:50;12.15;;;2.30;;
63782;SDS011;49925;52.522;5.732;2024-02-23T09:57:22;7.68;;;2.60;;
63782;SDS011;49925;52.522;5.732;2024-02-23T09:59:52;13.45;;;2.83;;
63782;SDS011;49925;52.522;5.732;2024-02-23T10:02:19;13.98;;;2.92;;
63782;SDS011;49925;52.522;5.732;2024-02-23T10:04:47;14.20;;;3.42;;
63782;SDS011;49925;52.522;5.732;2024-02-23T10:07:15;16.38;;;3.05;;
63782;SDS011;49925;52.522;5.732;2024-02-23T10:09:43;18.95;;;2.75;;
63782;SDS011;49925;52.522;5.732;2024-02-23T10:12:10;16.27;;;2.67;;
63782;SDS011;49925;52.522;5.732;2024-02-23T10:14:38;10.23;;;2.38;;
63782;SDS011;49925;52.522;5.732;2024-02-23T10:17:08;12.88;;;2.58;;
63782;SDS011;49925;52.522;5.732;2024-02-23T10:19:35;11.95;;;2.67;;
63782;SDS011;49925;52.522;5.732;2024-02-23T10:22:02;13.98;;;2.28;;
63782;SDS011;49925;52.522;5.732;2024-02-23T10:24:30;15.00;;;2.60;;
63782;SDS011;49925;52.522;5.732;2024-02-23T21:45:33;8.05;;;4.40;;
63782;SDS011;49925;52.522;5.732;2024-02-23T21:48:00;9.95;;;4.85;;
63782;SDS011;49925;52.522;5.732;2024-02-23T21:50:28;9.60;;;4.50;;
63782;SDS011;49925;52.522;5.732;2024-02-23T21:52:55;8.00;;;4.55;;
63782;SDS011;49925;52.522;5.732;2024-02-23T21:55:22;8.20;;;4.68;;
63782;SDS011;49925;52.522;5.732;2024-02-23T21:57:52;13.88;;;6.03;;
63782;SDS011;49925;52.522;5.732;2024-02-23T22:00:19;14.52;;;6.35;;
63782;SDS011;49925;52.522;5.732;2024-02-23T22:02:48;13.32;;;7.15;;
63782;SDS011;49925;52.522;5.732;2024-02-23T22:05:16;8.13;;;5.13;;
63782;SDS011;49925;52.522;5.732;2024-02-23T22:07:43;14.27;;;7.13;;
